Flight Track Log - Related Links

Times and Time Zones

All times are in EDT time to prevent confusion due to time zone crossing. See the CCA1294 flight status page for this flight to view local times or setup timezone preferences in your user account.

Time Position Orientation Groundspeed Altitude Reporting Facility
EDT Latitude Longitude Course Direction KTS MPH feet Rate Location/Type
Sat 08:31:00 AM 43.9061 88.0293 90° East  Level Estimated
Sat 08:32:00 AM 43.9051 88.2143 90° East  Level Estimated
Sat 08:33:00 AM 43.9039 88.3993 90° East  Level Estimated
Sat 08:34:00 AM 43.9024 88.5842 91° East  Level Estimated
Sat 08:35:00 AM 43.9005 88.7692 91° East  Level Estimated
Sat 08:36:00 AM 43.8984 88.9542 91° East  Level Estimated
Sat 08:37:00 AM 43.8959 89.1391 91° East  Level Estimated
Sat 08:38:00 AM 43.8932 89.3241 91° East  Level Estimated
Sat 08:39:00 AM 43.8902 89.5090 91° East  Level Estimated
Sat 08:40:00 AM 43.8868 89.6938 91° East  Level Estimated
Sat 08:41:00 AM 43.8832 89.8787 91° East  Level Estimated
Sat 08:42:00 AM 43.8793 90.0636 92° East  Level Estimated
Sat 08:43:00 AM 43.8751 90.2484 92° East  Level Estimated
Sat 08:44:00 AM 43.8705 90.4332 92° East  Level Estimated
Sat 08:45:00 AM 43.8657 90.6180 92° East  Level Estimated
Sat 08:46:00 AM 43.8606 90.8027 92° East  Level Estimated
Sat 08:47:00 AM 43.8552 90.9874 92° East  Level Estimated
Sat 08:48:00 AM 43.8495 91.1721 92° East  Level Estimated
Sat 08:49:00 AM 43.8435 91.3567 93° East  Level Estimated
Sat 08:50:00 AM 43.8372 91.5413 93° East  Level Estimated
Sat 08:51:00 AM 43.8306 91.7259 93° East  Level Estimated
Sat 08:52:00 AM 43.8237 91.9104 93° East  Level Estimated
Sat 08:53:00 AM 43.8164 92.0948 93° East  Level Estimated
Sat 08:54:00 AM 43.8090 92.2793 93° East  Level Estimated
Sat 08:55:00 AM 43.8012 92.4636 93° East  Level Estimated
Sat 08:56:00 AM 43.7931 92.6480 93° East  Level Estimated
Sat 08:57:00 AM 43.7847 92.8323 94° East  Level Estimated
Sat 08:58:00 AM 43.7760 93.0165 94° East  Level Estimated
Sat 08:59:00 AM 43.7670 93.2006 94° East  Level Estimated
Sat 09:00:00 AM 43.7578 93.3848 94° East  Level Estimated
Sat 09:01:00 AM 43.7482 93.5688 94° East  Level Estimated
Sat 09:02:00 AM 43.7383 93.7528 94° East  Level Estimated
Sat 09:03:00 AM 43.7282 93.9368 94° East  Level Estimated
Sat 09:04:00 AM 43.7177 94.1206 94° East  Level Estimated
Sat 09:05:00 AM 43.7070 94.3044 95° East  Level Estimated
Sat 09:06:00 AM 43.6959 94.4882 95° East  Level Estimated
Sat 09:07:00 AM 43.6846 94.6718 95° East  Level Estimated
Sat 09:08:00 AM 43.6730 94.8554 95° East  Level Estimated
Sat 09:09:00 AM 43.6611 95.0390 95° East  Level Estimated
Sat 09:10:00 AM 43.6488 95.2224 95° East  Level Estimated
Sat 09:11:00 AM 43.6363 95.4058 95° East  Level Estimated
Sat 09:12:00 AM 43.6235 95.5891 95° East  Level Estimated
Sat 09:13:00 AM 43.6104 95.7723 96° East  Level Estimated
Sat 09:14:00 AM 43.5970 95.9555 96° East  Level Estimated
Sat 09:15:00 AM 43.5834 96.1385 96° East  Level Estimated
Sat 09:16:00 AM 43.5694 96.3215 96° East  Level Estimated
Sat 09:17:00 AM 43.5551 96.5044 96° East  Level Estimated
Sat 09:18:00 AM 43.5406 96.6872 96° East  Level Estimated
Sat 09:19:00 AM 43.5257 96.8699 96° East  Level Estimated
Sat 09:20:00 AM 43.5106 97.0525 96° East  Level Estimated
Sat 09:21:00 AM 43.4952 97.2351 97° East  Level Estimated
Sat 09:22:00 AM 43.4795 97.4175 97° East  Level Estimated
Sat 09:23:00 AM 43.4634 97.5998 97° East  Level Estimated
Sat 09:24:00 AM 43.4471 97.7821 97° East  Level Estimated
Sat 09:25:00 AM 43.4305 97.9642 97° East  Level Estimated
Sat 09:26:00 AM 43.4137 98.1463 97° East  Level Estimated
Sat 09:27:00 AM 43.3965 98.3282 97° East  Level Estimated
Sat 09:28:00 AM 43.3791 98.5100 97° East  Level Estimated
Sat 09:29:00 AM 43.3613 98.6918 98° East  Level Estimated
Sat 09:30:00 AM 43.3433 98.8734 98° East  Level Estimated
Sat 09:31:00 AM 43.3250 99.0549 98° East  Level Estimated
Sat 09:32:00 AM 43.3064 99.2363 98° East  Level Estimated
Sat 09:33:00 AM 43.2875 99.4176 98° East  Level Estimated
Sat 09:34:00 AM 43.2683 99.5988 98° East  Level Estimated
Sat 09:35:00 AM 43.2489 99.7799 98° East  Level Estimated
Sat 09:36:00 AM 43.2291 99.9608 98° East  Level Estimated
Sat 09:37:00 AM 43.2091 100.1416 99° East  Level Estimated
Sat 09:38:00 AM 43.1888 100.3224 99° East  Level Estimated
Sat 09:39:00 AM 43.1682 100.5030 99° East  Level Estimated
Sat 09:40:00 AM 43.1473 100.6834 99° East  Level Estimated
Sat 09:41:00 AM 43.1261 100.8638 99° East  Level Estimated
Sat 09:42:00 AM 43.1047 101.0440 99° East  Level Estimated
Sat 09:43:00 AM 43.0830 101.2241 99° East  Level Estimated
Sat 09:44:00 AM 43.0610 101.4040 99° East  Level Estimated
Sat 09:45:00 AM 43.0387 101.5839 100° East  Level Estimated
Sat 09:46:00 AM 43.0161 101.7636 100° East  Level Estimated
Sat 09:47:00 AM 42.9932 101.9431 100° East  Level Estimated
Sat 09:48:00 AM 42.9701 102.1226 100° East  Level Estimated
Sat 09:49:00 AM 42.9467 102.3019 100° East  Level Estimated
Sat 09:50:00 AM 42.9230 102.4810 100° East  Level Estimated
Sat 09:51:00 AM 42.8990 102.6600 100° East  Level Estimated
Sat 09:52:00 AM 42.8747 102.8389 100° East  Level Estimated
Sat 09:53:00 AM 42.8502 103.0177 101° East  Level Estimated
Sat 09:54:00 AM 42.8254 103.1963 101° East  Level Estimated
Sat 09:55:00 AM 42.8003 103.3747 101° East  Level Estimated
Sat 09:56:00 AM 42.7749 103.5530 101° East  Level Estimated
Sat 09:57:00 AM 42.7493 103.7312 101° East  Level Estimated
Sat 09:58:00 AM 42.7234 103.9092 101° East  Level Estimated
Sat 09:59:00 AM 42.6972 104.0871 101° East  Level Estimated
Sat 10:00:00 AM 42.6707 104.2648 101° East  Level Estimated
Sat 10:01:00 AM 42.6440 104.4423 102° East  Level Estimated
Sat 10:02:00 AM 42.6169 104.6197 102° East  Level Estimated
Sat 10:03:00 AM 42.5896 104.7970 102° East  Level Estimated
Sat 10:04:00 AM 42.5621 104.9741 102° East  Level Estimated
Sat 10:05:00 AM 42.5342 105.1510 102° East  Level Estimated
Sat 10:06:00 AM 42.5061 105.3278 102° East  Level Estimated
Sat 10:07:00 AM 42.4777 105.5044 102° East  Level Estimated
Sat 10:08:00 AM 42.4491 105.6809 102° East  Level Estimated
Sat 10:09:00 AM 42.4202 105.8572 102° East  Level Estimated
Sat 10:10:00 AM 42.3910 106.0333 103° East  Level Estimated
Sat 10:11:00 AM 42.3615 106.2093 103° East  Level Estimated
Sat 10:12:00 AM 42.3318 106.3851 103° East  Level Estimated
Sat 10:13:00 AM 42.3018 106.5607 103° East  Level Estimated
Sat 10:14:00 AM 42.2715 106.7362 103° East  Level Estimated
Sat 10:15:00 AM 42.2410 106.9115 103° East  Level Estimated
Sat 10:16:00 AM 42.2102 107.0866 103° East  Level Estimated
Sat 10:17:00 AM 42.1791 107.2616 103° East  Level Estimated
Sat 10:18:00 AM 42.1478 107.4364 104° East  Level Estimated
Sat 10:19:00 AM 42.1162 107.6110 104° East  Level Estimated
Sat 10:20:00 AM 42.0844 107.7854 104° East  Level Estimated
Sat 10:21:00 AM 42.0522 107.9597 104° East  Level Estimated
Sat 10:22:00 AM 42.0199 108.1338 104° East  Level Estimated
Sat 10:23:00 AM 41.9872 108.3077 104° East  Level Estimated
Sat 10:24:00 AM 41.9543 108.4814 104° East  Level Estimated
Sat 10:25:00 AM 41.9211 108.6550 104° East  Level Estimated
Sat 10:26:00 AM 41.8877 108.8283 104° East  Level Estimated
Sat 10:27:00 AM 41.8540 109.0015 105° East  Level Estimated
Sat 10:28:00 AM 41.8200 109.1745 105° East  Level Estimated
Sat 10:29:00 AM 41.7858 109.3474 105° East  Level Estimated
Sat 10:30:00 AM 41.7514 109.5200 105° East  Level Estimated
Sat 10:31:00 AM 41.7166 109.6924 105° East  Level Estimated
Sat 10:32:00 AM 41.6816 109.8647 105° East  Level Estimated
Sat 10:33:00 AM 41.6464 110.0368 105° East  Level Estimated
Sat 10:34:00 AM 41.6109 110.2086 105° East  Level Estimated
Sat 10:35:00 AM 41.5751 110.3803 106° East  Level Estimated
Sat 10:36:00 AM 41.5391 110.5518 106° East  Level Estimated
Sat 10:37:00 AM 41.5028 110.7232 106° East  Level Estimated
Sat 10:38:00 AM 41.4663 110.8943 106° East  Level Estimated
Sat 10:39:00 AM 41.4296 111.0652 106° East  Level Estimated
Sat 10:40:00 AM 41.3925 111.2359 106° East  Level Estimated
Sat 10:41:00 AM 41.3552 111.4065 106° East  Level Estimated
Sat 10:42:00 AM 41.3177 111.5768 106° East  Level Estimated
Sat 10:43:00 AM 41.2799 111.7469 106° East  Level Estimated
Sat 10:44:00 AM 41.2419 111.9169 107° East  Level Estimated
Sat 10:45:00 AM 41.2036 112.0866 107° East  Level Estimated
Sat 10:46:00 AM 41.1651 112.2562 107° East  Level Estimated
Sat 10:47:00 AM 41.1263 112.4256 107° East  Level Estimated
Sat 10:48:00 AM 41.0873 112.5947 107° East  Level Estimated
Sat 10:49:00 AM 41.0480 112.7636 107° East  Level Estimated
Sat 10:50:00 AM 41.0085 112.9324 107° East  Level Estimated
Sat 10:51:00 AM 40.9687 113.1009 107° East  Level Estimated
Sat 10:52:00 AM 40.9287 113.2693 107° East  Level Estimated
Sat 10:53:00 AM 40.8885 113.4374 108° East  Level Estimated
Sat 10:54:00 AM 40.8479 113.6053 108° East  Level Estimated
Sat 10:55:00 AM 40.8072 113.7731 108° East  Level Estimated
Sat 10:56:00 AM 40.7662 113.9406 108° East  Level Estimated
Sat 10:57:00 AM 40.7250 114.1079 108° East  Level Estimated
Sat 10:58:00 AM 40.6835 114.2750 108° East  Level Estimated
Sat 10:59:00 AM 40.6418 114.4419 108° East  Level Estimated
Sat 11:00:00 AM 40.5999 114.6086 108° East  Level Estimated
Sat 11:01:00 AM 40.5577 114.7750 108° East  Level Estimated
Sat 11:02:00 AM 40.5152 114.9413 109° East  Level Estimated
Sat 11:03:00 AM 40.4726 115.1074 109° East  Level Estimated
Sat 11:04:00 AM 40.4297 115.2732 109° East  Level Estimated
Sat 11:05:00 AM 40.3865 115.4388 109° East  Level Estimated
Sat 11:06:00 AM 40.3432 115.6043 109° East  Level Estimated
Sat 11:07:00 AM 40.2996 115.7695 109° East  Level Estimated
Sat 11:08:00 AM 40.2557 115.9344 109° East  Level Estimated
Sat 11:09:00 AM 40.2116 116.0992 109° East  Level Estimated
Sat 11:10:00 AM 40.1673 116.2638 109° East  Level Estimated
Sat 11:11:00 AM 40.1228 116.4281 109° East  Level Estimated
Sat 11:12:00 AM 40.0801 116.5846 110° East  Level Estimated
Sat 11:13:00 AM 40.0801 116.5846 288° West  Level Estimated
Sat 11:14:00 AM 40.0801 116.5846 288° West  Level Estimated
Sat 11:15:00 AM 40.0801 116.5846 288° West  Level Estimated
Sat 11:16:00 AM 40.0801 116.5846 288° West  Level Estimated
Sat 11:17:00 AM 40.0801 116.5846 288° West  Level Estimated
Sat 11:18:00 AM 40.0801 116.5846 288° West  Level Estimated
Sat 11:19:00 AM 40.0801 116.5846 288° West  Level Estimated
Sat 11:20:00 AM 40.0801 116.5846 288° West  Level Estimated
Sat 11:21:00 AM 40.0801 116.5846 288° West  Level Estimated
Sat 11:22:00 AM 40.0801 116.5846 288° West  Level Estimated
Sat 11:23:00 AM 40.0801 116.5846 288° West  Level Estimated
Sat 11:24:00 AM 40.0801 116.5846 288° West  Level Estimated
Sat 11:25:00 AM 40.0801 116.5846 288° West  Level Estimated
Sat 11:26:00 AM 40.0801 116.5846 288° West  Level Estimated
Sat 11:27:00 AM 40.0801 116.5846 288° West  Level Estimated
Sat 11:28:00 AM 40.0801 116.5846 288° West  Level Estimated

Login

Don't have an account? Register now (free) for customized features, flight alerts, and more!